METAR / TAF

Die METAR- und TAF-Liste ist aus technischen Gründen (Verfügbarkeit, Update-Zyklen) nicht für ein Meteo-Briefing gedacht. Benutzen Sie stattdessen skybriefing der Skyguide  oder das TAMSI (MeteoSchweiz-eigene Meteo Selfbriefing-Plattform für Firmen aus der Aviatik; Anfragen über das

Kontaktformular

METAR Schweiz

METAR     LSZH 140550Z 00000KT 9999 FEW010 BKN060 17/16 Q1016 NOSIG=
METAR     LSZH 140620Z 00000KT 9999 FEW008 BKN055 17/16 Q1016 NOSIG=
METAR     LSGG 140550Z VRB02KT 9999 FEW006 SCT050 BKN080 17/17
               Q1016 NOSIG=
METAR     LSGG 140620Z VRB01KT 9999 FEW008 SCT050 BKN080 18/17
               Q1017 NOSIG=
METAR     LFSB 140630Z VRB02KT 9999 FEW033TCU BKN073 20/16 Q1016
               NOSIG=
METAR     LSZB 140550Z 10002KT 9999 -SHRA FEW003 SCT009 BKN050
               16/16 Q1016 NOSIG=
METAR     LSZB 140620Z VRB02KT 9999 FEW004 BKN060 17/17 Q1017 NOSIG=
METAR     LSZA 140550Z 02003KT 9999 FEW010 SCT130 16/16 Q1013 NOSIG=
METAR     LSZA 140620Z 04003KT 9999 FEW010 SCT130 17/16 Q1013 NOSIG=
METAR     LSZG 140550Z 22002KT 8000 FEW010 SCT055 17/16 Q1016 NOSIG=
METAR     LSZG 140620Z VRB02KT 9000 FEW010 SCT055 17/16 Q1017 NOSIG=
METAR     LSZR 140550Z 10004KT 9999 FEW038 BKN050 16/16 Q1016 NOSIG
               RMK B=
METAR     LSZR 140620Z 10003KT 9999 SCT050 BKN070 18/16 Q1016 NOSIG
               RMK C=
METAR     LSGS 140550Z 25003KT 9999 SCT025 BKN080 18/16 Q1016=
METAR     LSGS 140620Z 27004KT 240V300 9999 FEW010 SCT025 BKN080
               18/16 Q1017=
METAR     LSGC 140550Z AUTO 00000KT 9999 BKN017 BKN022 13/12 Q1018=
METAR     LSGC 140620Z VRB02KT 9999 SCT021 BKN050 14/13 Q1018=
METAR     LSZC 140550Z VRB02KT 5000 RA SCT005 BKN030 OVC045 17/17
               Q1017=
METAR     LSZC 140620Z 05005KT 3000 +RA SCT003 BKN011 OVC050 16/16
               Q1017 RMK SVFR=
METAR     LSZL 140550Z VRB01KT 9999 FEW010 SCT120 17/16 Q1012 RMK
               BLU+=
METAR     LSZL 140620Z VRB01KT 9999 FEW120 18/15 Q1013 RMK BLU+=
METAR     LSZS 140550Z 00000KT 9999 FEW006 SCT050 BKN070 08/08
               Q1019 RMK A=
METAR     LSZS 140620Z 00000KT 9999 FEW006 BKN050 09/08 Q1019 RMK B=
METAR RRA LSMA 140620Z 03005KT 7000 -RA FEW005 SCT012 OVC021 17/16
               Q1017 RERA RMK WHT=
METAR     LSMA 140550Z VRB02KT 8000 3000NE DZ SCT009 BKN016 OVC020
               17/16 Q1017 RMK=
METAR RRA LSMD 140550Z 00000KT 9999 FEW020 BKN044 BKN070 17/16
               Q1016 RMK BLU=
METAR     LSMD 140620Z 31005KT 9999 -SHRA FEW015 SCT035 BKN045
               17/16 Q1017 RMK BLU=
METAR RRA LSME 140620Z AUTO /////KT ////NDV -RA ////// 17/16 Q1017
               RMK MIS=
METAR     LSME 140550Z AUTO /////KT ////NDV -RA ////// 17/15 Q1017
               RMK MIS=
METAR     LSMM 140550Z AUTO 00000KT 9999NDV -SHRA SCT005 BKN012
               OVC017 16/16 Q1017 RMK=
METAR     LSMM 140620Z AUTO VRB02KT 9999NDV FEW002 BKN010 OVC043
               16/16 Q1017 RMK=
METAR     LSMP 140550Z NIL=
METAR     LSMP 140620Z VRB01KT 9999 FEW033 BKN086 17/16 Q1017 RMK
               BLU=
METAR     LSMS 140550Z 25003KT 9999 SCT025 BKN080 18/16 Q1016 RMK
               BLU=
METAR     LSMS 140620Z 27004KT 240V300 9999 FEW010 SCT025 BKN080
               18/16 Q1017 RMK BLU=
Aktualisiert am Dienstag, 14. August 2018, 08:41 Uhr

TAF Schweiz

TAF     LSZH 140525Z 1406/1512 20004KT 9999 FEW010 SCT020 BKN060
             TX24/1415Z TN18/1406Z TN13/1505Z PROB40 TEMPO
             1406/1415 SHRA SCT030TCU BKN040 PROB40 TEMPO
             1412/1415 29010KT BECMG 1503/1506 CAVOK PROB30
             1503/1507 3000 BCFG SCT002=
TAF     LSGG 140525Z 1406/1512 VRB03KT 9999 FEW020 SCT045 BKN080
             TX25/1415Z TN18/1406Z TN14/1504Z PROB30 TEMPO
             1406/1409 SHRA SCT050TCU BECMG 1411/1413 05010KT
             BECMG 1418/1420 VRB03KT BECMG 1420/1422 CAVOK BECMG
             1507/1509 04007KT=
TAF     LFSB 140500Z 1406/1506 VRB02KT 9999 FEW020 BKN025 BECMG
             1406/1410 28005KT NSC PROB40 TEMPO 1406/1415 -SHRA
             FEW045TCU BECMG 1418/1422 VRB02KT=
TAF     LSGS 140525Z 1406/1415 VRB01KT 9999 SCT025 BKN100 BECMG
             1410/1413 26012KT=
TAF     LSZA 140525Z 1406/1415 VRB03KT 9999 SCT130 PROB30 TEMPO
             1409/1412 SHRA BKN070TCU BECMG 1409/1411 02008KT=
TAF     LSZB 140525Z 1406/1415 VRB03KT 9999 FEW010 BKN060 PROB40
             TEMPO 1406/1413 SHRA SCT035TCU BKN040=
TAF     LSZG 140525Z 1406/1415 VRB03KT 9999 FEW008 BKN045 PROB40
             TEMPO 1406/1414 SHRA SCT035TCU BKN040=
TAF     LSZL 140525Z 1406/1415 VRB03KT 9999 SCT110 PROB30 TEMPO
             1408/1411 SHRA FEW040TCU TEMPO 1412/1415 09010KT=
TAF     LSZR 140525Z 1406/1415 VRB03KT 9999 FEW030 BKN070 PROB40
             TEMPO 1406/1413 SHRA SCT040TCU BKN050 BECMG 1408/1411
             29010KT=
TAF     LSGC 140525Z 1406/1415 21005KT 9999 FEW005 BKN016 TEMPO
             1406/1414 SHRA BKN014 SCT020TCU=
TAF     LSZC 140525Z 1406/1415 VRB03KT 9999 FEW016 BKN025 OVC040
             TEMPO 1406/1415 4000 SHRA SCT025TCU=
TAF     LSZS 140525Z 1406/1415 VRB03KT 9999 BKN070 TX17/1415Z BECMG
             1409/1411 34010G20KT PROB30 TEMPO 1406/1412 SHRA=
TAF     LSMA 131625Z 1317/1423 16003KT 9999 -SHRA FEW025 SCT038
             BKN100 PROB40 TEMPO 1317/1323 21012KT TSRA SCT050CB
             TEMPO 1405/1419 21012KT SHRA SCT050TCU=
TAF     LSMD 131625Z 1317/1423 VRB02KT 9999 FEW020 BKN090 PROB40
             TEMPO 1317/1323 28012KT TSRA SCT050CB TEMPO 1405/1418
             28012KT SHRA SCT050TCU=
TAF     LSME 131625Z 1317/1423 20003KT 9999 FEW020 BKN060 PROB40
             TEMPO 1317/1323 22012KT TSRA SCT050CB TEMPO 1405/1419
             24012KT SHRA SCT050TCU=
TAF AAB LSMM 140526Z 1405/1423 VRB03KT 9999 FEW004 BKN013 OVC030
             TEMPO 1405/1419 26012KT 4500 SHRA SCT025TCU=
TAF     LSMM 131625Z 1317/1423 VRB03KT 9999 SHRA FEW015 BKN026
             BKN050 TEMPO 1317/1323 26012KT TSRA SCT050CB TEMPO
             1404/1418 26012KT SHRA SCT050TCU=
TAF     LSMP 140525Z 1406/1512 VRB01KT 9999 FEW050 BKN080 PROB30
             TEMPO 1406/1409 SHRA SCT050TCU BECMG 1419/1422 CAVOK=
Aktualisiert am Dienstag, 14. August 2018, 08:38 Uhr